createdAt,value
2023-02-12T00:00:35.000Z,97.43
2023-02-12T00:01:35.000Z,97.43
2023-02-12T00:02:35.000Z,97.43
2023-02-12T00:03:35.000Z,97.33
2023-02-12T00:04:35.000Z,97.43
2023-02-12T00:05:35.000Z,97.33
2023-02-12T00:06:35.000Z,97.48
2023-02-12T00:07:35.000Z,97.43
2023-02-12T00:08:35.000Z,97.43
2023-02-12T00:09:35.000Z,97.43
2023-02-12T00:10:35.000Z,97.53
2023-02-12T00:11:35.000Z,97.68
2023-02-12T00:12:35.000Z,97.68
2023-02-12T00:13:35.000Z,97.78
2023-02-12T00:14:35.000Z,97.78
2023-02-12T00:15:35.000Z,97.89
2023-02-12T00:16:35.000Z,97.89
2023-02-12T00:17:35.000Z,97.99
2023-02-12T00:18:35.000Z,97.99
2023-02-12T00:19:35.000Z,97.99
2023-02-12T00:20:35.000Z,97.99
2023-02-12T00:21:35.000Z,97.85
2023-02-12T00:22:35.000Z,97.78
2023-02-12T00:23:35.000Z,97.78
2023-02-12T00:24:35.000Z,97.74
2023-02-12T00:25:35.000Z,97.64
2023-02-12T00:26:35.000Z,97.43
2023-02-12T00:27:35.000Z,97.43
2023-02-12T00:28:35.000Z,97.53
2023-02-12T00:29:35.000Z,97.53
2023-02-12T00:30:35.000Z,97.58
2023-02-12T00:31:35.000Z,97.53
2023-02-12T00:32:35.000Z,97.53
2023-02-12T00:33:35.000Z,97.33
2023-02-12T00:34:35.000Z,97.33
2023-02-12T00:35:35.000Z,97.33
2023-02-12T00:36:35.000Z,97.38
2023-02-12T00:37:35.000Z,97.43
2023-02-12T00:38:35.000Z,97.43
2023-02-12T00:39:35.000Z,97.53
2023-02-12T00:40:35.000Z,97.58
2023-02-12T00:41:35.000Z,97.58
2023-02-12T00:42:35.000Z,97.58
2023-02-12T00:43:35.000Z,97.68
2023-02-12T00:44:35.000Z,97.99
2023-02-12T00:45:35.000Z,97.89
2023-02-12T00:46:35.000Z,97.89
2023-02-12T00:47:35.000Z,97.78
2023-02-12T00:48:35.000Z,97.78
2023-02-12T00:49:35.000Z,97.78
2023-02-12T00:50:35.000Z,97.78
2023-02-12T00:51:35.000Z,97.78
2023-02-12T00:52:35.000Z,97.78
2023-02-12T00:53:35.000Z,97.99
2023-02-12T00:54:35.000Z,98.10
2023-02-12T00:55:35.000Z,98.10
2023-02-12T00:56:35.000Z,98.10
2023-02-12T00:57:35.000Z,97.99
2023-02-12T00:58:35.000Z,97.89
2023-02-12T00:59:35.000Z,97.78
2023-02-12T01:00:35.000Z,97.68
2023-02-12T01:01:35.000Z,97.68
2023-02-12T01:02:35.000Z,97.68
2023-02-12T01:03:35.000Z,97.64
2023-02-12T01:04:35.000Z,97.64
2023-02-12T01:05:35.000Z,97.64
2023-02-12T01:06:35.000Z,97.58
2023-02-12T01:07:35.000Z,97.68
2023-02-12T01:08:35.000Z,97.78
2023-02-12T01:09:35.000Z,97.78
2023-02-12T01:10:35.000Z,97.74
2023-02-12T01:11:35.000Z,97.68
2023-02-12T01:12:35.000Z,97.78
2023-02-12T01:13:35.000Z,97.74
2023-02-12T01:14:35.000Z,97.68
2023-02-12T01:15:35.000Z,97.58
2023-02-12T01:16:35.000Z,97.68
2023-02-12T01:17:35.000Z,97.68
2023-02-12T01:18:35.000Z,97.68
2023-02-12T01:19:35.000Z,97.78
2023-02-12T01:20:35.000Z,97.99
2023-02-12T01:21:35.000Z,97.99
2023-02-12T01:22:35.000Z,98.10
2023-02-12T01:23:35.000Z,98.10
2023-02-12T01:24:35.000Z,98.10
2023-02-12T01:25:35.000Z,98.10
2023-02-12T01:26:35.000Z,98.10
2023-02-12T01:27:35.000Z,98.10
2023-02-12T01:28:35.000Z,98.20
2023-02-12T01:29:35.000Z,98.10
2023-02-12T01:30:35.000Z,98.10
2023-02-12T01:31:34.000Z,98.10
2023-02-12T01:32:34.000Z,98.10
2023-02-12T01:33:34.000Z,98.10
2023-02-12T01:34:34.000Z,98.20
2023-02-12T01:35:34.000Z,98.20
2023-02-12T01:36:34.000Z,98.10
2023-02-12T01:37:34.000Z,98.10
2023-02-12T01:38:34.000Z,97.95
2023-02-12T01:39:34.000Z,97.74
2023-02-12T01:40:34.000Z,97.64
2023-02-12T01:41:34.000Z,97.64
2023-02-12T01:42:34.000Z,97.68
2023-02-12T01:43:34.000Z,97.58
2023-02-12T01:44:34.000Z,97.68
2023-02-12T01:45:34.000Z,97.64
2023-02-12T01:46:34.000Z,97.78
2023-02-12T01:47:34.000Z,97.85
2023-02-12T01:48:34.000Z,97.78
2023-02-12T01:49:34.000Z,97.89
2023-02-12T01:50:34.000Z,97.89
2023-02-12T01:51:34.000Z,97.85
2023-02-12T01:52:34.000Z,97.89
2023-02-12T01:53:34.000Z,97.89
2023-02-12T01:54:34.000Z,97.89
2023-02-12T01:55:34.000Z,97.78
2023-02-12T01:56:34.000Z,97.99
2023-02-12T01:57:34.000Z,97.99
2023-02-12T01:58:34.000Z,98.10
2023-02-12T01:59:34.000Z,98.10
2023-02-12T02:00:34.000Z,98.10
2023-02-12T02:01:34.000Z,98.10
2023-02-12T02:02:34.000Z,98.10
2023-02-12T02:03:34.000Z,98.10
2023-02-12T02:04:34.000Z,98.20
2023-02-12T02:05:34.000Z,98.10
2023-02-12T02:06:34.000Z,97.89
2023-02-12T02:07:34.000Z,97.99
2023-02-12T02:08:34.000Z,97.99
2023-02-12T02:09:34.000Z,98.10
2023-02-12T02:10:34.000Z,98.20
2023-02-12T02:11:34.000Z,98.20
2023-02-12T02:12:34.000Z,98.15
2023-02-12T02:13:34.000Z,98.20
2023-02-12T02:14:34.000Z,98.15
2023-02-12T02:15:34.000Z,98.30
2023-02-12T02:16:34.000Z,98.15
2023-02-12T02:17:34.000Z,98.15
2023-02-12T02:18:34.000Z,98.15
2023-02-12T02:19:34.000Z,98.15
2023-02-12T02:20:34.000Z,98.15
2023-02-12T02:21:34.000Z,98.15
2023-02-12T02:22:34.000Z,98.15
2023-02-12T02:23:34.000Z,98.15
2023-02-12T02:24:34.000Z,97.85
2023-02-12T02:25:34.000Z,97.95
2023-02-12T02:26:34.000Z,98.05
2023-02-12T02:27:34.000Z,98.05
2023-02-12T02:28:34.000Z,98.15
2023-02-12T02:29:34.000Z,98.15
2023-02-12T02:30:34.000Z,98.25
2023-02-12T02:31:34.000Z,98.15
2023-02-12T02:32:34.000Z,98.05
2023-02-12T02:33:34.000Z,98.05
2023-02-12T02:34:34.000Z,98.05
2023-02-12T02:35:34.000Z,98.05
2023-02-12T02:36:34.000Z,98.05
2023-02-12T02:37:34.000Z,98.05
2023-02-12T02:38:34.000Z,97.95
2023-02-12T02:39:34.000Z,97.95
2023-02-12T02:40:34.000Z,97.95
2023-02-12T02:41:34.000Z,97.95
2023-02-12T02:42:34.000Z,97.95
2023-02-12T02:43:34.000Z,97.95
2023-02-12T02:44:34.000Z,97.85
2023-02-12T02:45:34.000Z,97.74
2023-02-12T02:46:34.000Z,97.74
2023-02-12T02:47:34.000Z,97.74
2023-02-12T02:48:34.000Z,97.74
2023-02-12T02:49:34.000Z,97.74
2023-02-12T02:50:34.000Z,97.64
2023-02-12T02:51:34.000Z,97.64
2023-02-12T02:52:34.000Z,97.53
2023-02-12T02:53:34.000Z,97.43
2023-02-12T02:54:34.000Z,97.23
2023-02-12T02:55:34.000Z,97.13
2023-02-12T02:56:34.000Z,97.08
2023-02-12T02:57:34.000Z,96.97
2023-02-12T02:58:34.000Z,96.97
2023-02-12T02:59:34.000Z,97.08
2023-02-12T03:00:34.000Z,97.08
2023-02-12T03:01:34.000Z,97.08
2023-02-12T03:02:34.000Z,96.97
2023-02-12T03:03:34.000Z,96.97
2023-02-12T03:04:34.000Z,97.02
2023-02-12T03:05:34.000Z,97.08
2023-02-12T03:06:34.000Z,97.08
2023-02-12T03:07:34.000Z,96.97
2023-02-12T03:08:34.000Z,96.97
2023-02-12T03:09:34.000Z,96.97
2023-02-12T03:10:34.000Z,96.97
2023-02-12T03:11:34.000Z,96.97
2023-02-12T03:12:34.000Z,96.97
2023-02-12T03:13:34.000Z,96.88
2023-02-12T03:14:34.000Z,96.88
2023-02-12T03:15:34.000Z,96.88
2023-02-12T03:16:34.000Z,96.88
2023-02-12T03:17:33.000Z,96.97
2023-02-12T03:18:33.000Z,97.08
2023-02-12T03:19:33.000Z,97.08
2023-02-12T03:20:33.000Z,97.18
2023-02-12T03:21:33.000Z,97.13
2023-02-12T03:22:33.000Z,97.13
2023-02-12T03:23:33.000Z,97.08
2023-02-12T03:24:33.000Z,97.08
2023-02-12T03:25:33.000Z,97.23
2023-02-12T03:26:33.000Z,97.28
2023-02-12T03:27:33.000Z,97.23
2023-02-12T03:28:33.000Z,97.08
2023-02-12T03:29:33.000Z,96.97
2023-02-12T03:30:33.000Z,96.97
2023-02-12T03:31:33.000Z,96.88
2023-02-12T03:32:33.000Z,96.88
2023-02-12T03:33:33.000Z,96.97
2023-02-12T03:34:33.000Z,96.97
2023-02-12T03:35:33.000Z,96.88
2023-02-12T03:36:33.000Z,96.97
2023-02-12T03:37:33.000Z,96.97
2023-02-12T03:38:33.000Z,96.97
2023-02-12T03:39:33.000Z,96.97
2023-02-12T03:40:33.000Z,97.18
2023-02-12T03:41:33.000Z,97.18
2023-02-12T03:42:33.000Z,97.23
2023-02-12T03:43:33.000Z,97.18
2023-02-12T03:44:33.000Z,97.08
2023-02-12T03:45:33.000Z,97.13
2023-02-12T03:46:33.000Z,97.18
2023-02-12T03:47:33.000Z,97.18
2023-02-12T03:48:33.000Z,97.18
2023-02-12T03:49:33.000Z,97.18
2023-02-12T03:50:33.000Z,97.18
2023-02-12T03:51:33.000Z,97.18
2023-02-12T03:52:33.000Z,97.18
2023-02-12T03:53:33.000Z,97.28
2023-02-12T03:54:33.000Z,97.18
2023-02-12T03:55:33.000Z,97.18
2023-02-12T03:56:33.000Z,97.08
2023-02-12T03:57:33.000Z,97.08
2023-02-12T03:58:33.000Z,96.97
2023-02-12T03:59:33.000Z,96.88
2023-02-12T04:00:33.000Z,96.88
2023-02-12T04:01:33.000Z,96.97
2023-02-12T04:02:33.000Z,96.88
2023-02-12T04:03:33.000Z,96.88
2023-02-12T04:04:33.000Z,96.88
2023-02-12T04:05:33.000Z,96.88
2023-02-12T04:06:33.000Z,96.77
2023-02-12T04:07:33.000Z,96.77
2023-02-12T04:08:33.000Z,96.88
2023-02-12T04:09:33.000Z,96.88
2023-02-12T04:10:33.000Z,96.88
2023-02-12T04:11:33.000Z,96.88
2023-02-12T04:12:33.000Z,96.97
2023-02-12T04:13:33.000Z,96.97
2023-02-12T04:14:33.000Z,97.08
2023-02-12T04:15:33.000Z,97.08
2023-02-12T04:16:33.000Z,97.18
2023-02-12T04:17:33.000Z,97.28
2023-02-12T04:18:33.000Z,97.28
2023-02-12T04:19:33.000Z,97.39
2023-02-12T04:20:33.000Z,97.49
2023-02-12T04:21:33.000Z,97.60
2023-02-12T04:22:33.000Z,97.39
2023-02-12T04:23:33.000Z,97.28
2023-02-12T04:24:33.000Z,97.28
2023-02-12T04:25:33.000Z,97.28
2023-02-12T04:26:33.000Z,97.39
2023-02-12T04:27:33.000Z,97.39
2023-02-12T04:28:33.000Z,97.49
2023-02-12T04:29:33.000Z,97.49
2023-02-12T04:30:33.000Z,97.39
2023-02-12T04:31:33.000Z,97.49
2023-02-12T04:32:33.000Z,97.49
2023-02-12T04:33:33.000Z,97.49
2023-02-12T04:34:33.000Z,97.49
2023-02-12T04:35:33.000Z,97.60
2023-02-12T04:36:33.000Z,97.60
2023-02-12T04:37:33.000Z,97.53
2023-02-12T04:38:33.000Z,97.53
2023-02-12T04:39:33.000Z,97.64
2023-02-12T04:40:33.000Z,97.69
2023-02-12T04:41:33.000Z,97.69
2023-02-12T04:42:33.000Z,97.74
2023-02-12T04:43:33.000Z,97.60
2023-02-12T04:44:33.000Z,97.69
2023-02-12T04:45:33.000Z,97.64
2023-02-12T04:46:33.000Z,97.49
2023-02-12T04:47:33.000Z,97.49
2023-02-12T04:48:33.000Z,97.49
2023-02-12T04:49:33.000Z,97.39
2023-02-12T04:50:33.000Z,97.39
2023-02-12T04:51:33.000Z,97.39
2023-02-12T04:52:33.000Z,97.28
2023-02-12T04:53:33.000Z,97.28
2023-02-12T04:54:33.000Z,97.28
2023-02-12T04:55:33.000Z,97.39
2023-02-12T04:56:33.000Z,97.39
2023-02-12T04:57:33.000Z,97.28
2023-02-12T04:58:33.000Z,97.28
2023-02-12T04:59:33.000Z,97.28
2023-02-12T05:00:33.000Z,97.28
2023-02-12T05:01:33.000Z,97.18
2023-02-12T05:02:33.000Z,97.18
2023-02-12T05:03:33.000Z,97.28
2023-02-12T05:04:32.000Z,97.39
2023-02-12T05:05:32.000Z,97.39
2023-02-12T05:06:32.000Z,97.39
2023-02-12T05:07:32.000Z,97.49
2023-02-12T05:08:32.000Z,97.49
2023-02-12T05:09:32.000Z,97.49
2023-02-12T05:10:32.000Z,97.49
2023-02-12T05:11:32.000Z,97.60
2023-02-12T05:12:32.000Z,97.64
2023-02-12T05:13:32.000Z,97.60
2023-02-12T05:14:32.000Z,97.64
2023-02-12T05:15:32.000Z,97.69
2023-02-12T05:16:32.000Z,97.69
2023-02-12T05:17:32.000Z,97.69
2023-02-12T05:18:32.000Z,97.69
2023-02-12T05:19:32.000Z,97.69
2023-02-12T05:20:32.000Z,97.60
2023-02-12T05:21:32.000Z,97.60
2023-02-12T05:22:32.000Z,97.60
2023-02-12T05:23:32.000Z,97.60
2023-02-12T05:24:32.000Z,97.69
2023-02-12T05:25:32.000Z,97.60
2023-02-12T05:26:32.000Z,97.49
2023-02-12T05:27:32.000Z,97.39
2023-02-12T05:28:32.000Z,97.28
2023-02-12T05:29:32.000Z,97.28
2023-02-12T05:30:32.000Z,97.08
2023-02-12T05:31:32.000Z,96.88
2023-02-12T05:32:32.000Z,96.77
2023-02-12T05:33:32.000Z,96.77
2023-02-12T05:34:32.000Z,96.88
2023-02-12T05:35:32.000Z,96.97
2023-02-12T05:36:32.000Z,96.97
2023-02-12T05:37:32.000Z,97.18
2023-02-12T05:38:32.000Z,97.18
2023-02-12T05:39:32.000Z,97.28
2023-02-12T05:40:32.000Z,97.28
2023-02-12T05:41:32.000Z,97.28
2023-02-12T05:42:32.000Z,97.28
2023-02-12T05:43:32.000Z,97.39
2023-02-12T05:44:32.000Z,97.28
2023-02-12T05:45:32.000Z,97.28
2023-02-12T05:46:32.000Z,97.28
2023-02-12T05:47:32.000Z,97.39
2023-02-12T05:48:32.000Z,97.28
2023-02-12T05:49:32.000Z,97.28
2023-02-12T05:50:32.000Z,97.39
2023-02-12T05:51:32.000Z,97.39
2023-02-12T05:52:32.000Z,97.28
2023-02-12T05:53:32.000Z,97.18
2023-02-12T05:54:32.000Z,97.28
2023-02-12T05:55:32.000Z,97.28
2023-02-12T05:56:32.000Z,97.18
2023-02-12T05:57:32.000Z,96.97
2023-02-12T05:58:32.000Z,97.08
2023-02-12T05:59:32.000Z,97.08
2023-02-12T06:00:32.000Z,97.08
2023-02-12T06:01:32.000Z,97.08
2023-02-12T06:02:32.000Z,97.18
2023-02-12T06:03:32.000Z,97.28
2023-02-12T06:04:32.000Z,97.28
2023-02-12T06:05:32.000Z,97.39
2023-02-12T06:06:32.000Z,97.60
2023-02-12T06:07:32.000Z,97.60
2023-02-12T06:08:32.000Z,97.49
2023-02-12T06:09:32.000Z,97.60
2023-02-12T06:10:32.000Z,97.60
2023-02-12T06:11:32.000Z,97.69
2023-02-12T06:12:32.000Z,97.80
2023-02-12T06:13:32.000Z,97.95
2023-02-12T06:14:32.000Z,97.90
2023-02-12T06:15:32.000Z,97.90
2023-02-12T06:16:32.000Z,97.90
2023-02-12T06:17:32.000Z,98.05
2023-02-12T06:18:32.000Z,98.00
2023-02-12T06:19:32.000Z,98.05
2023-02-12T06:20:32.000Z,98.15
2023-02-12T06:21:32.000Z,98.11
2023-02-12T06:22:32.000Z,98.11
2023-02-12T06:23:32.000Z,98.21
2023-02-12T06:24:32.000Z,98.25
2023-02-12T06:25:32.000Z,98.21
2023-02-12T06:26:32.000Z,98.21
2023-02-12T06:27:32.000Z,98.21
2023-02-12T06:28:32.000Z,98.21
2023-02-12T06:29:32.000Z,98.21
2023-02-12T06:30:32.000Z,98.11
2023-02-12T06:31:32.000Z,98.11
2023-02-12T06:32:32.000Z,98.11
2023-02-12T06:33:32.000Z,98.00
2023-02-12T06:34:32.000Z,98.11
2023-02-12T06:35:32.000Z,98.11
2023-02-12T06:36:32.000Z,98.11
2023-02-12T06:37:32.000Z,98.21
2023-02-12T06:38:32.000Z,98.21
2023-02-12T06:39:32.000Z,98.11
2023-02-12T06:40:32.000Z,98.11
2023-02-12T06:41:32.000Z,98.21
2023-02-12T06:42:32.000Z,98.25
2023-02-12T06:43:32.000Z,98.21
2023-02-12T06:44:32.000Z,98.21
2023-02-12T06:45:32.000Z,98.15
2023-02-12T06:46:32.000Z,98.15
2023-02-12T06:47:32.000Z,98.32
2023-02-12T06:48:32.000Z,98.32
2023-02-12T06:49:32.000Z,98.36
2023-02-12T06:50:31.000Z,98.32
2023-02-12T06:51:31.000Z,98.42
2023-02-12T06:52:31.000Z,98.42
2023-02-12T06:53:31.000Z,98.42
2023-02-12T06:54:31.000Z,98.42
2023-02-12T06:55:31.000Z,98.46
2023-02-12T06:56:31.000Z,98.52
2023-02-12T06:57:31.000Z,98.46
2023-02-12T06:58:31.000Z,98.52
2023-02-12T06:59:31.000Z,98.42
2023-02-12T07:00:31.000Z,98.42
2023-02-12T07:01:31.000Z,98.42
2023-02-12T07:02:31.000Z,98.42
2023-02-12T07:03:31.000Z,98.42
2023-02-12T07:04:31.000Z,98.42
2023-02-12T07:05:31.000Z,98.42
2023-02-12T07:06:31.000Z,98.42
2023-02-12T07:07:31.000Z,98.52
2023-02-12T07:08:31.000Z,98.52
2023-02-12T07:09:31.000Z,98.52
2023-02-12T07:10:31.000Z,98.52
2023-02-12T07:11:31.000Z,98.42
2023-02-12T07:12:31.000Z,98.42
2023-02-12T07:13:31.000Z,98.42
2023-02-12T07:14:31.000Z,98.52
2023-02-12T07:15:31.000Z,98.52
2023-02-12T07:16:31.000Z,98.62
2023-02-12T07:17:31.000Z,98.62
2023-02-12T07:18:31.000Z,98.62
2023-02-12T07:19:31.000Z,98.72
2023-02-12T07:20:31.000Z,98.72
2023-02-12T07:21:31.000Z,98.72
2023-02-12T07:22:31.000Z,98.72
2023-02-12T07:23:31.000Z,98.83
2023-02-12T07:24:31.000Z,98.83
2023-02-12T07:25:31.000Z,98.83
2023-02-12T07:26:31.000Z,98.83
2023-02-12T07:27:31.000Z,98.93
2023-02-12T07:28:31.000Z,98.93
2023-02-12T07:29:31.000Z,98.93
2023-02-12T07:30:31.000Z,98.93
2023-02-12T07:31:31.000Z,98.99
2023-02-12T07:32:31.000Z,98.99
2023-02-12T07:33:31.000Z,98.99
2023-02-12T07:34:31.000Z,98.88
2023-02-12T07:35:31.000Z,98.88
2023-02-12T07:36:31.000Z,98.88
2023-02-12T07:37:31.000Z,98.88
2023-02-12T07:38:31.000Z,98.88
2023-02-12T07:39:31.000Z,98.88
2023-02-12T07:40:31.000Z,98.88
2023-02-12T07:41:31.000Z,98.88
2023-02-12T07:42:31.000Z,98.79
2023-02-12T07:43:31.000Z,98.88
2023-02-12T07:44:31.000Z,98.88
2023-02-12T07:45:31.000Z,98.88
2023-02-12T07:46:31.000Z,98.79
2023-02-12T07:47:31.000Z,98.79
2023-02-12T07:48:31.000Z,98.79
2023-02-12T07:49:31.000Z,98.79
2023-02-12T07:50:31.000Z,98.79
2023-02-12T07:51:31.000Z,98.79
2023-02-12T07:52:31.000Z,98.68
2023-02-12T07:53:31.000Z,98.58
2023-02-12T07:54:31.000Z,98.47
2023-02-12T07:55:31.000Z,98.37
2023-02-12T07:56:31.000Z,98.37
2023-02-12T07:57:31.000Z,98.37
2023-02-12T07:58:31.000Z,98.27
2023-02-12T07:59:31.000Z,98.37
2023-02-12T08:00:31.000Z,98.37
2023-02-12T08:01:31.000Z,98.37
2023-02-12T08:02:31.000Z,98.37
2023-02-12T08:03:31.000Z,98.37
2023-02-12T08:04:31.000Z,98.37
2023-02-12T08:05:31.000Z,98.37
2023-02-12T08:06:31.000Z,98.37
2023-02-12T08:07:31.000Z,98.37
2023-02-12T08:08:31.000Z,98.47
2023-02-12T08:09:31.000Z,98.58
2023-02-12T08:10:31.000Z,98.58
2023-02-12T08:11:31.000Z,98.58
2023-02-12T08:12:31.000Z,98.47
2023-02-12T08:13:31.000Z,98.47
2023-02-12T08:14:31.000Z,98.43
2023-02-12T08:15:31.000Z,98.37
2023-02-12T08:16:31.000Z,98.33
2023-02-12T08:17:31.000Z,98.33
2023-02-12T08:18:31.000Z,98.22
2023-02-12T08:19:31.000Z,98.33
2023-02-12T08:20:31.000Z,98.22
2023-02-12T08:21:31.000Z,98.12
2023-02-12T08:22:31.000Z,98.12
2023-02-12T08:23:31.000Z,98.12
2023-02-12T08:24:31.000Z,98.12
2023-02-12T08:25:31.000Z,98.02
2023-02-12T08:26:31.000Z,98.12
2023-02-12T08:27:31.000Z,98.16
2023-02-12T08:28:31.000Z,98.27
2023-02-12T08:29:31.000Z,98.33
2023-02-12T08:30:31.000Z,98.33
2023-02-12T08:31:31.000Z,98.43
2023-02-12T08:32:31.000Z,98.43
2023-02-12T08:33:31.000Z,98.43
2023-02-12T08:34:31.000Z,98.53
2023-02-12T08:35:31.000Z,98.63
2023-02-12T08:36:31.000Z,98.63
2023-02-12T08:37:30.000Z,98.63
2023-02-12T08:38:30.000Z,98.74
2023-02-12T08:39:30.000Z,98.74
2023-02-12T08:40:30.000Z,98.63
2023-02-12T08:41:30.000Z,98.63
2023-02-12T08:42:30.000Z,98.63
2023-02-12T08:43:30.000Z,98.53
2023-02-12T08:44:30.000Z,98.49
2023-02-12T08:45:30.000Z,98.49
2023-02-12T08:46:30.000Z,98.59
2023-02-12T08:47:30.000Z,98.49
2023-02-12T08:48:30.000Z,98.38
2023-02-12T08:49:30.000Z,98.38
2023-02-12T08:50:30.000Z,98.38
2023-02-12T08:51:30.000Z,98.38
2023-02-12T08:52:30.000Z,98.49
2023-02-12T08:53:30.000Z,98.38
2023-02-12T08:54:30.000Z,98.49
2023-02-12T08:55:30.000Z,98.49
2023-02-12T08:56:30.000Z,98.49
2023-02-12T08:57:30.000Z,98.49
2023-02-12T08:58:30.000Z,98.49
2023-02-12T08:59:30.000Z,98.59
2023-02-12T09:00:30.000Z,98.59
2023-02-12T09:01:30.000Z,98.65
2023-02-12T09:02:30.000Z,98.65
2023-02-12T09:03:30.000Z,98.54
2023-02-12T09:04:30.000Z,98.44
2023-02-12T09:05:30.000Z,98.33
2023-02-12T09:06:30.000Z,98.24
2023-02-12T09:07:30.000Z,98.13
2023-02-12T09:08:30.000Z,98.13
2023-02-12T09:09:30.000Z,98.13
2023-02-12T09:10:30.000Z,98.13
2023-02-12T09:11:30.000Z,98.24
2023-02-12T09:12:30.000Z,98.24
2023-02-12T09:13:30.000Z,98.33
2023-02-12T09:14:30.000Z,98.44
2023-02-12T09:15:30.000Z,98.29
2023-02-12T09:16:30.000Z,98.08
2023-02-12T09:17:30.000Z,98.08
2023-02-12T09:18:30.000Z,98.08
2023-02-12T09:19:30.000Z,98.08
2023-02-12T09:20:30.000Z,98.08
2023-02-12T09:21:30.000Z,98.08
2023-02-12T09:22:30.000Z,97.99
2023-02-12T09:23:30.000Z,97.78
2023-02-12T09:24:30.000Z,97.47
2023-02-12T09:25:30.000Z,97.27
2023-02-12T09:26:30.000Z,97.16
2023-02-12T09:27:30.000Z,97.16
2023-02-12T09:28:30.000Z,97.16
2023-02-12T09:29:30.000Z,97.16
2023-02-12T09:30:30.000Z,97.16
2023-02-12T09:31:30.000Z,97.27
2023-02-12T09:32:30.000Z,97.37
2023-02-12T09:33:30.000Z,97.47
2023-02-12T09:34:30.000Z,97.37
2023-02-12T09:35:30.000Z,97.27
2023-02-12T09:36:30.000Z,97.16
2023-02-12T09:37:30.000Z,96.95
2023-02-12T09:38:30.000Z,96.95
2023-02-12T09:39:30.000Z,96.95
2023-02-12T09:40:30.000Z,97.06
2023-02-12T09:41:30.000Z,96.85
2023-02-12T09:42:30.000Z,96.65
2023-02-12T09:43:30.000Z,96.75
2023-02-12T09:44:30.000Z,96.65
2023-02-12T09:45:30.000Z,96.55
2023-02-12T09:46:30.000Z,96.55
2023-02-12T09:47:30.000Z,96.55
2023-02-12T09:48:30.000Z,96.65
2023-02-12T09:49:30.000Z,96.55
2023-02-12T09:50:30.000Z,96.55
2023-02-12T09:51:30.000Z,96.65
2023-02-12T09:52:30.000Z,96.75
2023-02-12T09:53:30.000Z,96.75
2023-02-12T09:54:30.000Z,96.65
2023-02-12T09:55:30.000Z,96.75
2023-02-12T09:56:30.000Z,96.85
2023-02-12T09:57:30.000Z,96.65
2023-02-12T09:58:30.000Z,96.65
2023-02-12T09:59:30.000Z,96.65
2023-02-12T10:00:30.000Z,96.75
2023-02-12T10:01:30.000Z,96.65
2023-02-12T10:02:30.000Z,96.75
2023-02-12T10:03:30.000Z,97.06
2023-02-12T10:04:30.000Z,97.06
2023-02-12T10:05:30.000Z,96.95
2023-02-12T10:06:30.000Z,97.06
2023-02-12T10:07:30.000Z,97.06
2023-02-12T10:08:30.000Z,97.16
2023-02-12T10:09:30.000Z,97.22
2023-02-12T10:10:30.000Z,97.22
2023-02-12T10:11:30.000Z,97.32
2023-02-12T10:12:30.000Z,97.32
2023-02-12T10:13:30.000Z,97.12
2023-02-12T10:14:30.000Z,97.22
2023-02-12T10:15:30.000Z,97.12
2023-02-12T10:16:30.000Z,96.91
2023-02-12T10:17:30.000Z,96.70
2023-02-12T10:17:30.000Z,96.70
2023-02-12T10:18:30.000Z,96.70
2023-02-12T10:18:30.000Z,96.70
2023-02-12T10:19:30.000Z,96.60
2023-02-12T10:19:30.000Z,96.60
2023-02-12T10:20:30.000Z,96.70
2023-02-12T10:20:30.000Z,96.70
2023-02-12T10:21:30.000Z,96.70
2023-02-12T10:21:30.000Z,96.70
2023-02-12T10:22:29.000Z,96.91
2023-02-12T10:23:29.000Z,97.02
2023-02-12T10:24:29.000Z,97.02
2023-02-12T10:25:29.000Z,97.02
2023-02-12T10:26:29.000Z,97.02
2023-02-12T10:27:29.000Z,97.12
2023-02-12T10:28:29.000Z,96.66
2023-02-12T10:29:29.000Z,96.50
2023-02-12T10:30:29.000Z,96.60
2023-02-12T10:31:29.000Z,96.81
2023-02-12T10:32:29.000Z,96.87
2023-02-12T10:33:29.000Z,96.97
2023-02-12T10:34:29.000Z,96.97
2023-02-12T10:35:29.000Z,96.87
2023-02-12T10:36:29.000Z,96.97
2023-02-12T10:37:29.000Z,96.87
2023-02-12T10:38:29.000Z,96.87
2023-02-12T10:39:29.000Z,96.87
2023-02-12T10:40:29.000Z,96.87
2023-02-12T10:41:29.000Z,96.87
2023-02-12T10:42:29.000Z,96.87
2023-02-12T10:43:29.000Z,96.56
2023-02-12T10:44:29.000Z,96.45
2023-02-12T10:45:29.000Z,96.30
2023-02-12T10:46:29.000Z,96.25
2023-02-12T10:47:29.000Z,96.45
2023-02-12T10:48:29.000Z,96.45
2023-02-12T10:49:29.000Z,96.40
2023-02-12T10:50:29.000Z,96.66
2023-02-12T10:51:29.000Z,96.66
2023-02-12T10:52:29.000Z,96.66
2023-02-12T10:53:29.000Z,96.87
2023-02-12T10:54:29.000Z,96.87
2023-02-12T10:55:29.000Z,96.66
2023-02-12T10:56:29.000Z,96.66
2023-02-12T10:57:29.000Z,96.82
2023-02-12T10:58:29.000Z,97.03
2023-02-12T10:59:29.000Z,97.03
2023-02-12T11:00:29.000Z,96.92
2023-02-12T11:01:29.000Z,96.82
2023-02-12T11:02:29.000Z,96.72
2023-02-12T11:03:29.000Z,96.47
2023-02-12T11:04:29.000Z,95.86
2023-02-12T11:05:29.000Z,95.44
2023-02-12T11:06:29.000Z,95.34
2023-02-12T11:07:29.000Z,95.34
2023-02-12T11:08:29.000Z,95.24
2023-02-12T11:09:29.000Z,95.14
2023-02-12T11:10:29.000Z,94.93
2023-02-12T11:11:29.000Z,94.93
2023-02-12T11:12:29.000Z,95.14
2023-02-12T11:13:29.000Z,95.24
2023-02-12T11:14:29.000Z,94.83
2023-02-12T11:15:29.000Z,94.21
2023-02-12T11:16:29.000Z,94.01
2023-02-12T11:17:29.000Z,94.01
2023-02-12T11:18:29.000Z,93.80
2023-02-12T11:19:29.000Z,93.80
2023-02-12T11:20:29.000Z,93.90
2023-02-12T11:21:29.000Z,94.11
2023-02-12T11:22:29.000Z,94.11
2023-02-12T11:23:29.000Z,94.11
2023-02-12T11:24:29.000Z,94.01
2023-02-12T11:25:29.000Z,93.86
2023-02-12T11:26:29.000Z,93.76
2023-02-12T11:27:29.000Z,93.66
2023-02-12T11:28:29.000Z,93.66
2023-02-12T11:29:29.000Z,93.55
2023-02-12T11:30:29.000Z,93.45
2023-02-12T11:31:29.000Z,93.25
2023-02-12T11:32:29.000Z,92.53
2023-02-12T11:33:29.000Z,92.22
2023-02-12T11:34:29.000Z,92.22
2023-02-12T11:35:29.000Z,92.32
2023-02-12T11:36:29.000Z,92.32
2023-02-12T11:37:29.000Z,92.32
2023-02-12T11:38:29.000Z,92.22
2023-02-12T11:39:29.000Z,92.32
2023-02-12T11:40:29.000Z,92.43
2023-02-12T11:41:29.000Z,92.12
2023-02-12T11:42:29.000Z,91.71
2023-02-12T11:43:29.000Z,91.82
2023-02-12T11:44:29.000Z,91.91
2023-02-12T11:45:29.000Z,91.82
2023-02-12T11:46:29.000Z,91.82
2023-02-12T11:47:29.000Z,92.02
2023-02-12T11:48:29.000Z,92.02
2023-02-12T11:49:29.000Z,92.12
2023-02-12T11:50:29.000Z,91.91
2023-02-12T11:51:29.000Z,91.82
2023-02-12T11:52:29.000Z,92.02
2023-02-12T11:53:29.000Z,91.91
2023-02-12T11:54:29.000Z,91.30
2023-02-12T11:55:29.000Z,91.30
2023-02-12T11:56:29.000Z,91.09
2023-02-12T11:57:29.000Z,90.99
2023-02-12T11:58:29.000Z,90.99
2023-02-12T11:59:29.000Z,90.89
2023-02-12T12:00:29.000Z,90.89
2023-02-12T12:01:29.000Z,90.89
2023-02-12T12:02:29.000Z,90.83
2023-02-12T12:03:29.000Z,90.83
2023-02-12T12:04:29.000Z,91.14
2023-02-12T12:05:28.000Z,91.03
2023-02-12T12:06:28.000Z,91.14
2023-02-12T12:07:28.000Z,91.24
2023-02-12T12:08:28.000Z,91.24
2023-02-12T12:09:28.000Z,90.93
2023-02-12T12:10:28.000Z,91.03
2023-02-12T12:11:28.000Z,91.14
2023-02-12T12:12:28.000Z,91.03
2023-02-12T12:13:28.000Z,90.83
2023-02-12T12:14:28.000Z,91.03
2023-02-12T12:15:28.000Z,91.24
2023-02-12T12:16:28.000Z,91.03
2023-02-12T12:17:28.000Z,90.93
2023-02-12T12:18:28.000Z,91.03
2023-02-12T12:19:28.000Z,91.14
2023-02-12T12:20:28.000Z,91.24
2023-02-12T12:21:28.000Z,91.24
2023-02-12T12:22:28.000Z,90.83
2023-02-12T12:23:28.000Z,90.83
2023-02-12T12:24:28.000Z,91.14
2023-02-12T12:25:28.000Z,91.14
2023-02-12T12:26:28.000Z,91.14
2023-02-12T12:27:28.000Z,90.62
2023-02-12T12:28:28.000Z,90.62
2023-02-12T12:29:28.000Z,90.93
2023-02-12T12:30:28.000Z,91.14
2023-02-12T12:31:28.000Z,91.14
2023-02-12T12:32:28.000Z,91.14
2023-02-12T12:33:28.000Z,91.03
2023-02-12T12:34:28.000Z,90.79
2023-02-12T12:35:28.000Z,90.73
2023-02-12T12:36:28.000Z,90.52
2023-02-12T12:37:28.000Z,90.48
2023-02-12T12:38:28.000Z,90.52
2023-02-12T12:39:28.000Z,90.42
2023-02-12T12:40:28.000Z,90.52
2023-02-12T12:41:28.000Z,90.62
2023-02-12T12:42:28.000Z,90.32
2023-02-12T12:43:28.000Z,90.32
2023-02-12T12:44:28.000Z,90.01
2023-02-12T12:45:28.000Z,89.90
2023-02-12T12:46:28.000Z,89.90
2023-02-12T12:47:28.000Z,90.11